Time;durP1;ratioP1;P1;durP2;ratioP2;P2;SDS_P1;SDS_P2;PMS_P1;PMS_P2;Temp;Humidity;BMP_temperature;BMP_pressure;BME280_temperature;BME280_humidity;BME280_pressure;Samples;Min_cycle;Max_cycle;Signal;HPM_P1;HPM_P2
2023/01/07 00:01:01;;;;;;;6.97;3.53;;;10.80;99.90;;;;;;5029128;28;20025;-69
2023/01/07 00:03:27;;;;;;;7.20;4.23;;;10.80;99.90;;;;;;5029118;28;20529;-70
2023/01/07 00:06:04;;;;;;;7.65;4.30;;;10.80;99.90;;;;;;5028557;28;20618;-71
2023/01/07 00:08:35;;;;;;;7.13;3.85;;;10.80;99.90;;;;;;5028107;28;20055;-71
2023/01/07 00:11:05;;;;;;;10.13;4.32;;;10.80;99.90;;;;;;5029618;28;20030;-71
2023/01/07 00:13:31;;;;;;;7.22;3.70;;;10.80;99.90;;;;;;5029001;28;20041;-70
2023/01/07 00:16:05;;;;;;;6.13;3.28;;;10.80;99.90;;;;;;5029886;28;20034;-68
2023/01/07 00:18:31;;;;;;;8.93;3.45;;;10.80;99.90;;;;;;5029141;28;20620;-71
2023/01/07 00:20:58;;;;;;;8.85;3.88;;;10.80;99.90;;;;;;5029752;28;20054;-70
2023/01/07 00:23:24;;;;;;;8.13;3.50;;;10.80;99.90;;;;;;5028790;28;20037;-71
2023/01/07 00:25:51;;;;;;;7.40;4.10;;;10.80;99.90;;;;;;5027769;28;20037;-70
2023/01/07 00:28:17;;;;;;;16.20;4.10;;;10.70;99.90;;;;;;5029265;28;20473;-71
2023/01/07 00:30:42;;;;;;;7.35;3.50;;;10.80;99.90;;;;;;5027563;28;20040;-69
2023/01/07 00:33:11;;;;;;;6.72;2.90;;;10.70;99.90;;;;;;5029072;28;20040;-70
2023/01/07 00:35:37;;;;;;;7.25;3.45;;;10.80;99.90;;;;;;5027757;28;20029;-70
2023/01/07 00:38:04;;;;;;;7.78;3.30;;;10.70;99.90;;;;;;5027076;28;20030;-70
2023/01/07 00:40:32;;;;;;;5.93;3.10;;;10.70;99.90;;;;;;5027784;28;20041;-71
2023/01/07 00:43:03;;;;;;;5.30;3.30;;;10.70;99.90;;;;;;5029433;28;20171;-70
2023/01/07 00:45:32;;;;;;;7.20;3.42;;;10.70;99.90;;;;;;5028964;28;20653;-71
2023/01/07 00:47:59;;;;;;;6.45;3.38;;;10.70;99.90;;;;;;5029178;28;20064;-70
2023/01/07 00:50:28;;;;;;;7.32;3.35;;;10.70;99.90;;;;;;5028281;28;20038;-70
2023/01/07 00:52:54;;;;;;;7.38;3.45;;;10.70;99.90;;;;;;5029134;28;20493;-71
2023/01/07 00:55:21;;;;;;;4.53;2.58;;;10.70;99.90;;;;;;5028439;28;20034;-69
2023/01/07 00:57:47;;;;;;;5.95;2.88;;;10.60;99.90;;;;;;5028536;28;20569;-70
2023/01/07 01:00:14;;;;;;;7.20;3.42;;;10.70;99.90;;;;;;5027569;28;20056;-69
2023/01/07 01:02:40;;;;;;;6.30;2.88;;;10.60;99.90;;;;;;5028680;28;20037;-67
2023/01/07 01:05:06;;;;;;;6.70;3.10;;;10.60;99.90;;;;;;5026953;28;20176;-70
2023/01/07 01:07:33;;;;;;;7.57;2.85;;;10.60;99.90;;;;;;5028699;28;20114;-71
2023/01/07 01:09:59;;;;;;;5.70;2.58;;;10.60;99.90;;;;;;5028508;28;20060;-70
2023/01/07 01:12:24;;;;;;;9.65;3.70;;;10.50;99.90;;;;;;5027598;28;20033;-69
2023/01/07 01:14:50;;;;;;;5.55;2.97;;;10.50;99.90;;;;;;5027063;28;20041;-71
2023/01/07 01:17:16;;;;;;;5.07;2.88;;;10.50;99.90;;;;;;5027192;28;20037;-72
2023/01/07 01:19:41;;;;;;;7.90;2.97;;;10.60;99.90;;;;;;5028205;28;20071;-69
2023/01/07 01:22:07;;;;;;;7.80;2.60;;;10.60;99.90;;;;;;5027349;28;20450;-70
2023/01/07 01:24:33;;;;;;;5.90;2.75;;;10.60;99.90;;;;;;5026640;28;20041;-71
2023/01/07 01:26:59;;;;;;;4.93;2.90;;;10.60;99.90;;;;;;5028571;28;20049;-69
2023/01/07 01:29:24;;;;;;;4.95;2.53;;;10.60;99.90;;;;;;5028904;28;20029;-71
2023/01/07 01:31:50;;;;;;;6.43;2.95;;;10.60;99.90;;;;;;5028536;28;20060;-69
2023/01/07 01:34:15;;;;;;;4.20;2.65;;;10.60;99.90;;;;;;5027637;28;20037;-70
2023/01/07 01:36:41;;;;;;;4.88;2.90;;;10.60;99.90;;;;;;5028397;28;20465;-68
2023/01/07 01:39:07;;;;;;;6.38;2.70;;;10.50;99.90;;;;;;5028188;28;20117;-71
2023/01/07 01:41:32;;;;;;;5.95;2.72;;;10.60;99.90;;;;;;5026429;28;20108;-71
2023/01/07 01:43:59;;;;;;;6.05;3.08;;;10.60;99.90;;;;;;5026466;28;20044;-71
2023/01/07 01:46:43;;;;;;;7.18;2.78;;;10.60;99.90;;;;;;5028533;28;20478;-71
2023/01/07 01:49:25;;;;;;;4.38;2.20;;;10.60;99.90;;;;;;5024648;28;20041;-71
2023/01/07 01:52:02;;;;;;;7.82;2.95;;;10.60;99.90;;;;;;5026632;28;20064;-71
2023/01/07 01:54:28;;;;;;;4.28;2.58;;;10.60;99.90;;;;;;5026063;28;20049;-69
2023/01/07 01:56:57;;;;;;;6.32;3.17;;;10.60;99.90;;;;;;5026800;28;20037;-72
2023/01/07 01:59:27;;;;;;;5.30;2.90;;;10.60;99.90;;;;;;5026842;28;20034;-70
2023/01/07 02:01:53;;;;;;;6.60;3.35;;;10.60;99.90;;;;;;5028006;28;20053;-71
2023/01/07 02:04:21;;;;;;;4.70;2.50;;;10.60;99.90;;;;;;5027610;28;20033;-70
2023/01/07 02:06:57;;;;;;;5.55;2.55;;;10.60;99.90;;;;;;5026940;28;20108;-70
2023/01/07 02:09:22;;;;;;;5.63;2.80;;;10.60;99.90;;;;;;5027762;28;20504;-71
2023/01/07 02:11:56;;;;;;;4.22;2.85;;;10.70;99.90;;;;;;5026268;28;20032;-70
2023/01/07 02:14:42;;;;;;;7.40;2.70;;;10.70;99.90;;;;;;5027416;28;20041;-70
2023/01/07 02:17:26;;;;;;;5.78;2.90;;;10.60;99.90;;;;;;5002875;28;20041;-71
2023/01/07 02:20:26;;;;;;;7.68;3.05;;;10.70;99.90;;;;;;5051090;28;20037;-70
2023/01/07 02:23:29;;;;;;;5.70;2.53;;;10.70;99.90;;;;;;5025989;28;20041;-71
2023/01/07 02:26:33;;;;;;;7.00;2.67;;;10.60;99.90;;;;;;5014549;28;20075;-71
2023/01/07 02:29:04;;;;;;;6.57;2.88;;;10.60;99.90;;;;;;5025229;28;20033;-69
2023/01/07 02:31:58;;;;;;;8.18;3.10;;;10.60;99.90;;;;;;5027663;28;20029;-70
2023/01/07 02:34:50;;;;;;;5.95;2.60;;;10.50;99.90;;;;;;5027182;28;20391;-71
2023/01/07 02:37:31;;;;;;;8.68;3.40;;;10.40;99.90;;;;;;5025839;28;20222;-70
2023/01/07 02:40:12;;;;;;;5.38;2.70;;;10.40;99.90;;;;;;5028153;28;20092;-69
2023/01/07 02:42:47;;;;;;;7.97;2.70;;;10.40;99.90;;;;;;5024514;28;20135;-70
2023/01/07 02:45:25;;;;;;;6.60;3.03;;;10.30;99.90;;;;;;5026106;28;20043;-71
2023/01/07 02:48:03;;;;;;;5.47;3.05;;;10.30;99.90;;;;;;5027657;28;20041;-70
2023/01/07 02:50:28;;;;;;;8.48;2.97;;;10.30;99.90;;;;;;5027686;28;20068;-69
2023/01/07 02:52:54;;;;;;;6.20;2.53;;;10.20;99.90;;;;;;5026108;28;20431;-70
2023/01/07 02:55:41;;;;;;;6.50;2.90;;;10.20;99.90;;;;;;5026230;28;20075;-70
2023/01/07 02:58:32;;;;;;;6.10;2.90;;;10.20;99.90;;;;;;5023087;28;20498;-71
2023/01/07 03:01:00;;;;;;;7.30;3.58;;;10.20;99.90;;;;;;5026645;28;20034;-71
2023/01/07 03:04:07;;;;;;;7.68;3.00;;;10.20;99.90;;;;;;5027008;28;20106;-72
2023/01/07 03:06:41;;;;;;;6.65;3.28;;;10.10;99.90;;;;;;5019837;28;20033;-70
2023/01/07 03:09:22;;;;;;;6.30;2.80;;;10.10;99.90;;;;;;5027896;28;20176;-71
2023/01/07 03:12:06;;;;;;;6.15;2.97;;;10.10;99.90;;;;;;5028050;28;20037;-70
2023/01/07 03:14:49;;;;;;;9.43;3.40;;;10.10;99.90;;;;;;5023392;28;20095;-70
2023/01/07 03:17:20;;;;;;;7.40;3.38;;;10.10;99.90;;;;;;5025882;28;20030;-68
2023/01/07 03:19:51;;;;;;;9.48;3.30;;;10.10;99.90;;;;;;5031430;28;20041;-71
2023/01/07 03:22:19;;;;;;;8.50;2.90;;;10.10;99.90;;;;;;5029983;28;20429;-72
2023/01/07 03:24:48;;;;;;;6.07;3.00;;;10.00;99.90;;;;;;5029920;28;20670;-72
2023/01/07 03:27:17;;;;;;;7.10;3.38;;;10.00;99.90;;;;;;5031411;28;20555;-70
2023/01/07 03:29:42;;;;;;;9.50;3.97;;;9.90;99.90;;;;;;5031445;28;20075;-70
2023/01/07 03:32:17;;;;;;;8.10;3.17;;;9.90;99.90;;;;;;5029493;28;20065;-71
2023/01/07 03:34:44;;;;;;;10.05;2.95;;;9.90;99.90;;;;;;5031167;28;20064;-71
2023/01/07 03:37:13;;;;;;;7.03;2.75;;;9.90;99.90;;;;;;5029509;28;20083;-71
2023/01/07 03:39:40;;;;;;;13.27;2.97;;;9.90;99.90;;;;;;5030016;28;20072;-70
2023/01/07 03:44:52;;;;;;;6.10;2.83;;;9.90;99.90;;;;;;5029201;28;20041;-69
2023/01/07 03:47:18;;;;;;;6.03;3.05;;;9.90;99.90;;;;;;5029136;28;20053;-74
2023/01/07 03:49:44;;;;;;;7.70;2.65;;;9.90;99.90;;;;;;5029575;28;20037;-70
2023/01/07 03:52:10;;;;;;;9.48;2.80;;;9.90;99.90;;;;;;5029811;28;20048;-71
2023/01/07 03:54:35;;;;;;;7.28;3.40;;;9.90;99.90;;;;;;5030838;28;20037;-71
2023/01/07 03:57:01;;;;;;;6.80;3.40;;;9.80;99.90;;;;;;5030509;28;20048;-69
2023/01/07 03:59:27;;;;;;;9.13;2.58;;;9.90;99.90;;;;;;5029899;28;20041;-70
2023/01/07 04:01:52;;;;;;;10.10;2.58;;;9.90;99.90;;;;;;5031535;28;20049;-70
2023/01/07 04:04:18;;;;;;;9.38;3.10;;;9.90;99.90;;;;;;5029359;28;20512;-70
2023/01/07 04:06:44;;;;;;;10.57;2.80;;;9.90;99.90;;;;;;5031865;28;20053;-70
2023/01/07 04:09:11;;;;;;;10.23;3.40;;;9.90;99.90;;;;;;5030585;28;20490;-70
2023/01/07 04:11:36;;;;;;;7.05;2.50;;;9.80;99.90;;;;;;5030641;28;20040;-70
2023/01/07 04:14:02;;;;;;;10.95;2.47;;;9.80;99.90;;;;;;5031059;28;20022;-72
2023/01/07 04:16:27;;;;;;;6.80;3.17;;;9.80;99.90;;;;;;5029531;28;20124;-71
2023/01/07 04:18:53;;;;;;;7.13;2.63;;;9.80;99.90;;;;;;5029483;28;20486;-71
2023/01/07 04:21:19;;;;;;;6.93;2.85;;;9.80;99.90;;;;;;5031169;28;20137;-70
2023/01/07 04:23:44;;;;;;;13.38;2.95;;;9.90;99.90;;;;;;5029294;28;20080;-71
2023/01/07 04:26:10;;;;;;;7.03;3.15;;;9.90;99.90;;;;;;5030229;28;20032;-70
2023/01/07 04:28:36;;;;;;;7.72;2.63;;;9.90;99.90;;;;;;5029576;28;20144;-70
2023/01/07 04:31:01;;;;;;;6.57;2.95;;;9.80;99.90;;;;;;5030074;28;20032;-70
2023/01/07 04:33:27;;;;;;;9.68;3.08;;;9.80;99.90;;;;;;5030106;28;20117;-70
2023/01/07 04:35:53;;;;;;;6.13;2.38;;;9.90;99.90;;;;;;5031632;28;20121;-71
2023/01/07 04:38:18;;;;;;;9.95;2.30;;;9.90;99.90;;;;;;5031397;28;20025;-71
2023/01/07 04:40:44;;;;;;;9.07;3.10;;;9.90;99.90;;;;;;5030984;28;20033;-70
2023/01/07 04:43:09;;;;;;;5.57;2.42;;;9.90;99.90;;;;;;5030647;28;20034;-70
2023/01/07 04:45:35;;;;;;;9.57;2.75;;;9.90;99.90;;;;;;5029356;28;20453;-71
2023/01/07 04:48:01;;;;;;;9.45;2.90;;;9.90;99.90;;;;;;5028979;28;20077;-68
2023/01/07 04:50:26;;;;;;;7.20;3.00;;;10.00;99.90;;;;;;5030970;28;20788;-71
2023/01/07 04:52:52;;;;;;;8.13;2.30;;;10.00;99.90;;;;;;5029401;28;20037;-72
2023/01/07 04:55:18;;;;;;;9.30;2.40;;;10.10;99.90;;;;;;5034655;28;20033;-69
2023/01/07 04:57:43;;;;;;;5.15;2.45;;;10.00;99.90;;;;;;5029128;28;20410;-70
2023/01/07 05:00:10;;;;;;;7.13;2.78;;;10.00;99.90;;;;;;5028891;28;20088;-70
2023/01/07 05:02:35;;;;;;;6.72;2.67;;;10.00;99.90;;;;;;5028016;28;20033;-70
2023/01/07 05:05:01;;;;;;;5.75;2.25;;;10.00;99.90;;;;;;5029638;28;20076;-68
2023/01/07 05:07:26;;;;;;;4.90;2.10;;;10.10;99.90;;;;;;5030275;28;20037;-70
2023/01/07 05:09:52;;;;;;;6.70;2.40;;;10.00;99.90;;;;;;5028295;28;20076;-70
2023/01/07 05:12:17;;;;;;;5.68;2.10;;;10.00;99.90;;;;;;5029525;28;20064;-68
2023/01/07 05:14:43;;;;;;;8.75;2.90;;;10.00;99.90;;;;;;5029043;28;20125;-70
2023/01/07 05:17:09;;;;;;;4.72;2.40;;;10.00;99.90;;;;;;5029434;28;20120;-70
2023/01/07 05:19:34;;;;;;;4.47;2.40;;;10.00;99.90;;;;;;5029367;28;20038;-70
2023/01/07 05:22:00;;;;;;;8.40;2.88;;;10.00;99.90;;;;;;5027756;28;20068;-72
2023/01/07 05:24:25;;;;;;;4.03;2.08;;;10.00;99.90;;;;;;5029271;28;20037;-71
2023/01/07 05:26:51;;;;;;;6.65;1.98;;;9.90;99.90;;;;;;5028807;28;20055;-72
2023/01/07 05:29:16;;;;;;;5.05;2.38;;;10.00;99.90;;;;;;5028152;28;20037;-70
2023/01/07 05:31:42;;;;;;;8.70;2.20;;;10.10;99.90;;;;;;5028890;28;20179;-70
2023/01/07 05:34:08;;;;;;;4.45;2.30;;;10.10;99.90;;;;;;5028420;28;20383;-69
2023/01/07 05:36:33;;;;;;;5.15;2.00;;;10.10;99.90;;;;;;5028807;28;20041;-72
2023/01/07 05:38:59;;;;;;;5.97;2.47;;;10.10;99.90;;;;;;5027913;28;20032;-70
2023/01/07 05:41:24;;;;;;;5.57;1.80;;;10.00;99.90;;;;;;5026130;28;20052;-72
2023/01/07 05:43:50;;;;;;;6.05;2.40;;;10.00;99.90;;;;;;5027996;28;20081;-70
2023/01/07 05:46:16;;;;;;;4.05;2.10;;;10.00;99.90;;;;;;5028702;28;20527;-69
2023/01/07 05:48:41;;;;;;;4.03;2.08;;;10.00;99.90;;;;;;5027090;28;20056;-70
2023/01/07 05:51:07;;;;;;;4.07;2.65;;;10.00;99.90;;;;;;5049867;28;20414;-70
2023/01/07 05:53:32;;;;;;;5.15;2.45;;;10.00;99.90;;;;;;5026572;28;20132;-70
2023/01/07 05:55:59;;;;;;;6.70;2.28;;;10.00;99.90;;;;;;5028594;28;20026;-71
2023/01/07 05:58:26;;;;;;;3.45;1.50;;;10.00;99.90;;;;;;5051756;28;20131;-71
2023/01/07 06:00:52;;;;;;;8.15;1.92;;;9.90;99.90;;;;;;5028390;28;20036;-71
2023/01/07 06:03:18;;;;;;;5.10;1.95;;;9.90;99.90;;;;;;5026786;28;20038;-71
2023/01/07 06:05:44;;;;;;;3.88;1.95;;;9.90;99.90;;;;;;5027320;28;20490;-71
2023/01/07 06:08:09;;;;;;;3.33;1.80;;;9.90;99.90;;;;;;5028278;28;20029;-71
2023/01/07 06:10:35;;;;;;;5.78;1.90;;;9.90;99.90;;;;;;5026941;28;20057;-70
2023/01/07 06:13:01;;;;;;;4.93;1.77;;;9.90;99.90;;;;;;5027861;28;20490;-70
2023/01/07 06:15:27;;;;;;;3.90;2.15;;;9.90;99.90;;;;;;5028716;28;20037;-71
2023/01/07 06:17:53;;;;;;;3.65;1.55;;;9.90;99.90;;;;;;5028323;28;20489;-71
2023/01/07 06:20:19;;;;;;;5.68;1.60;;;9.90;99.90;;;;;;5026646;28;20059;-69
2023/01/07 06:22:44;;;;;;;5.65;1.30;;;10.00;99.90;;;;;;5026113;28;20041;-71
2023/01/07 06:25:11;;;;;;;6.35;1.50;;;9.90;99.90;;;;;;5027469;28;20466;-71
2023/01/07 06:27:39;;;;;;;5.38;1.40;;;9.90;99.90;;;;;;5028617;28;20764;-70
2023/01/07 06:30:06;;;;;;;4.40;2.00;;;9.90;99.90;;;;;;5028979;28;20044;-69
2023/01/07 06:32:36;;;;;;;4.82;1.10;;;9.90;99.90;;;;;;5026805;28;20413;-71
2023/01/07 06:35:02;;;;;;;4.68;1.23;;;9.90;99.90;;;;;;5028822;28;20060;-71
2023/01/07 06:37:28;;;;;;;4.40;1.23;;;9.90;99.90;;;;;;5027484;28;20485;-70
2023/01/07 06:39:53;;;;;;;3.20;1.23;;;9.80;99.90;;;;;;5029259;28;20049;-70
2023/01/07 06:42:19;;;;;;;4.13;1.30;;;9.80;99.90;;;;;;5028348;28;20128;-69
2023/01/07 06:44:44;;;;;;;7.38;1.52;;;9.80;99.90;;;;;;5028397;28;20041;-70
2023/01/07 06:47:10;;;;;;;3.00;0.82;;;9.70;99.90;;;;;;5028385;28;20065;-73
2023/01/07 06:49:35;;;;;;;4.13;1.17;;;9.70;99.90;;;;;;5026977;28;20387;-70
2023/01/07 06:52:01;;;;;;;6.88;1.38;;;9.70;99.90;;;;;;5028251;28;20041;-70
2023/01/07 06:54:27;;;;;;;3.38;1.15;;;9.70;99.90;;;;;;5026848;28;20045;-70
2023/01/07 06:56:52;;;;;;;4.50;1.15;;;9.60;99.90;;;;;;5028191;28;20608;-70
2023/01/07 06:59:18;;;;;;;4.07;1.42;;;9.70;99.90;;;;;;5026700;28;20053;-70
2023/01/07 07:01:43;;;;;;;4.05;1.10;;;9.70;99.90;;;;;;5027765;28;20036;-70
2023/01/07 07:04:09;;;;;;;3.08;1.00;;;9.60;99.90;;;;;;5026898;28;20132;-70
2023/01/07 07:06:34;;;;;;;1.75;1.10;;;9.60;99.90;;;;;;5025338;28;20066;-70
2023/01/07 07:09:00;;;;;;;4.07;1.52;;;9.60;99.90;;;;;;5027954;28;20406;-74
2023/01/07 07:11:26;;;;;;;2.05;1.00;;;9.70;99.90;;;;;;5026378;28;20037;-70
2023/01/07 07:13:51;;;;;;;2.53;0.80;;;9.60;99.90;;;;;;5025531;28;20034;-71
2023/01/07 07:16:17;;;;;;;3.08;0.80;;;9.70;99.90;;;;;;5026000;28;20034;-70
2023/01/07 07:18:43;;;;;;;2.20;0.90;;;9.70;99.90;;;;;;5027622;28;20403;-71
2023/01/07 07:21:08;;;;;;;3.25;1.00;;;9.80;99.90;;;;;;5026340;28;20120;-70
2023/01/07 07:23:34;;;;;;;4.38;0.80;;;9.80;99.90;;;;;;5027165;28;20570;-70
2023/01/07 07:25:59;;;;;;;2.42;0.60;;;9.90;99.90;;;;;;5026514;28;20040;-72
2023/01/07 07:28:25;;;;;;;2.92;0.75;;;9.90;99.90;;;;;;5026126;28;20649;-70
2023/01/07 07:30:50;;;;;;;3.10;0.88;;;9.90;99.90;;;;;;5027315;28;20025;-69
2023/01/07 07:33:17;;;;;;;3.22;0.60;;;10.00;99.90;;;;;;5027395;28;20049;-70
2023/01/07 07:35:43;;;;;;;3.72;0.70;;;10.10;99.90;;;;;;5021569;28;20071;-70
2023/01/07 07:38:09;;;;;;;3.78;0.70;;;10.10;99.90;;;;;;5027377;28;20041;-70
2023/01/07 07:40:34;;;;;;;1.52;0.70;;;10.10;99.90;;;;;;5027108;28;20042;-71
2023/01/07 07:43:00;;;;;;;2.97;0.85;;;10.10;99.90;;;;;;5026994;28;20500;-70
2023/01/07 07:45:26;;;;;;;1.33;0.52;;;10.20;99.90;;;;;;5026940;28;20035;-70
2023/01/07 07:47:51;;;;;;;2.78;0.70;;;10.20;99.90;;;;;;5025606;28;20120;-70
2023/01/07 07:50:17;;;;;;;1.85;0.50;;;10.20;99.90;;;;;;5027185;28;20071;-71
2023/01/07 07:52:43;;;;;;;5.60;0.90;;;10.20;99.90;;;;;;5025325;28;20421;-70
2023/01/07 07:55:08;;;;;;;2.45;0.82;;;10.20;99.90;;;;;;5025340;28;20041;-71
2023/01/07 07:57:34;;;;;;;2.33;0.43;;;10.30;99.90;;;;;;5026270;28;20105;-71
2023/01/07 08:00:00;;;;;;;1.48;0.60;;;10.30;99.90;;;;;;5026443;28;20091;-70
2023/01/07 08:02:25;;;;;;;1.38;0.43;;;10.30;99.90;;;;;;5025086;28;20052;-69
2023/01/07 08:04:51;;;;;;;1.30;0.50;;;10.30;99.90;;;;;;5027948;28;20034;-67
2023/01/07 08:07:16;;;;;;;0.68;0.40;;;10.30;99.90;;;;;;5029013;28;20033;-70
2023/01/07 08:09:42;;;;;;;0.63;0.30;;;10.20;99.90;;;;;;5026761;28;20071;-72
2023/01/07 08:12:07;;;;;;;3.40;0.40;;;10.20;99.90;;;;;;5030027;28;20087;-71
2023/01/07 08:14:33;;;;;;;3.10;0.75;;;10.20;99.90;;;;;;5029440;28;20030;-71
2023/01/07 08:16:59;;;;;;;2.22;0.45;;;10.30;99.90;;;;;;5029933;28;20046;-71
2023/01/07 08:19:24;;;;;;;0.68;0.47;;;10.30;99.90;;;;;;5029197;28;20039;-69
2023/01/07 08:21:50;;;;;;;3.33;0.77;;;10.20;99.90;;;;;;5029560;28;20877;-70
2023/01/07 08:24:16;;;;;;;1.70;0.47;;;10.20;99.90;;;;;;5027180;28;20029;-70
2023/01/07 08:26:41;;;;;;;1.33;0.20;;;10.20;99.90;;;;;;5029177;28;20559;-70
2023/01/07 08:29:07;;;;;;;3.33;0.65;;;10.30;99.90;;;;;;5031856;28;20030;-67
2023/01/07 08:31:33;;;;;;;9.45;1.27;;;10.30;99.90;;;;;;5029547;28;20033;-70
2023/01/07 08:33:59;;;;;;;1.73;0.47;;;10.30;99.90;;;;;;5028971;28;20032;-71
2023/01/07 08:36:24;;;;;;;0.98;0.65;;;10.30;99.90;;;;;;5028944;28;20385;-70
2023/01/07 08:38:54;;;;;;;3.70;0.52;;;10.30;99.90;;;;;;5029623;28;20512;-71
2023/01/07 08:41:21;;;;;;;1.52;0.40;;;10.40;99.90;;;;;;5028853;28;20026;-71
2023/01/07 08:43:46;;;;;;;1.08;0.40;;;10.40;99.90;;;;;;5029024;28;20617;-71
2023/01/07 08:46:12;;;;;;;4.65;0.47;;;10.40;99.90;;;;;;5031292;28;20044;-70
2023/01/07 08:48:40;;;;;;;1.23;0.50;;;10.40;99.90;;;;;;5029157;28;20045;-69
2023/01/07 08:51:06;;;;;;;2.80;0.30;;;10.40;99.90;;;;;;5027361;28;20057;-71
2023/01/07 08:53:32;;;;;;;2.85;0.20;;;10.40;99.90;;;;;;5027290;28;20371;-71
2023/01/07 08:55:58;;;;;;;1.58;0.50;;;10.40;99.90;;;;;;5028095;28;20033;-70
2023/01/07 08:58:24;;;;;;;1.50;0.40;;;10.40;99.90;;;;;;5029372;28;20131;-69
2023/01/07 09:00:51;;;;;;;1.27;0.50;;;10.40;99.90;;;;;;5027628;28;20067;-70
2023/01/07 09:03:16;;;;;;;0.75;0.40;;;10.50;99.90;;;;;;5028487;28;20091;-70
2023/01/07 09:05:42;;;;;;;2.40;0.30;;;10.50;99.90;;;;;;5033056;28;20064;-71
2023/01/07 09:08:08;;;;;;;1.50;0.30;;;10.50;99.90;;;;;;5023294;28;20123;-69
2023/01/07 09:10:33;;;;;;;1.08;0.52;;;10.50;99.90;;;;;;5027083;28;20043;-72
2023/01/07 09:12:59;;;;;;;1.70;0.50;;;10.50;99.90;;;;;;5020669;28;20108;-69
2023/01/07 09:15:25;;;;;;;1.30;0.30;;;10.60;99.90;;;;;;5026717;28;20029;-69
2023/01/07 09:17:50;;;;;;;2.75;0.30;;;10.60;99.90;;;;;;5029091;28;20075;-70
2023/01/07 09:20:16;;;;;;;0.70;0.28;;;10.60;99.90;;;;;;5029175;28;20168;-70
2023/01/07 09:22:42;;;;;;;0.75;0.20;;;10.60;99.90;;;;;;5028970;28;20041;-71
2023/01/07 09:25:08;;;;;;;0.65;0.30;;;10.70;99.90;;;;;;5028203;28;20068;-72
2023/01/07 09:27:34;;;;;;;2.58;0.40;;;10.60;99.90;;;;;;5029234;28;20379;-72
2023/01/07 09:29:59;;;;;;;0.93;0.40;;;10.60;99.90;;;;;;5029614;28;20034;-72
2023/01/07 09:32:26;;;;;;;5.75;0.40;;;10.70;99.90;;;;;;5027745;28;20116;-70
2023/01/07 09:34:51;;;;;;;0.85;0.20;;;10.60;99.90;;;;;;5028573;28;20029;-70
2023/01/07 09:37:17;;;;;;;0.70;0.30;;;10.70;99.90;;;;;;5027982;28;20045;-70
2023/01/07 09:39:43;;;;;;;1.65;0.28;;;10.70;99.90;;;;;;5029200;28;20052;-71
2023/01/07 09:42:26;;;;;;;2.53;0.25;;;10.80;99.90;;;;;;5027872;28;20532;-71
2023/01/07 09:45:13;;;;;;;1.55;0.43;;;10.80;99.90;;;;;;5025525;28;20057;-74
2023/01/07 09:47:44;;;;;;;0.20;0.10;;;10.80;99.90;;;;;;5024462;28;20049;-72
2023/01/07 09:50:17;;;;;;;0.73;0.30;;;10.80;99.90;;;;;;5029375;28;20166;-70
2023/01/07 09:52:52;;;;;;;1.98;0.25;;;10.90;99.90;;;;;;5027604;28;20129;-72
2023/01/07 09:55:29;;;;;;;0.20;0.10;;;10.90;99.90;;;;;;5028541;28;20116;-71
2023/01/07 09:57:55;;;;;;;0.10;0.05;;;11.00;99.90;;;;;;5029038;28;20040;-70
2023/01/07 10:00:23;;;;;;;1.00;0.30;;;11.00;99.90;;;;;;5027447;28;20037;-71
2023/01/07 10:02:48;;;;;;;0.63;0.20;;;11.00;99.90;;;;;;5028846;28;20509;-72
2023/01/07 10:05:23;;;;;;;2.50;0.95;;;11.00;99.90;;;;;;5028082;28;20128;-72
2023/01/07 10:08:16;;;;;;;0.45;0.32;;;11.00;99.90;;;;;;5028913;28;20041;-71
2023/01/07 10:10:57;;;;;;;1.55;0.30;;;11.00;99.90;;;;;;5025975;28;20099;-70
2023/01/07 10:13:55;;;;;;;0.35;0.25;;;11.00;99.90;;;;;;5027489;28;20051;-71
2023/01/07 10:16:39;;;;;;;1.67;0.30;;;11.10;99.90;;;;;;5027068;28;20647;-71
2023/01/07 10:19:21;;;;;;;2.38;0.40;;;11.10;99.90;;;;;;5024653;28;20037;-71
2023/01/07 10:21:56;;;;;;;0.85;0.20;;;11.10;99.90;;;;;;5028673;28;20042;-70
2023/01/07 10:24:44;;;;;;;2.30;0.40;;;11.10;99.90;;;;;;5026529;28;20040;-72
2023/01/07 10:27:14;;;;;;;2.28;0.30;;;11.10;99.90;;;;;;5024454;28;20040;-69
2023/01/07 10:29:49;;;;;;;0.40;0.20;;;11.20;99.90;;;;;;5027451;28;20317;-71
2023/01/07 10:32:16;;;;;;;1.15;0.10;;;11.20;99.90;;;;;;5028935;28;20029;-72
2023/01/07 10:34:47;;;;;;;0.40;0.10;;;11.20;99.90;;;;;;5028620;28;20079;-71
2023/01/07 10:37:35;;;;;;;1.52;0.43;;;11.20;99.90;;;;;;5028768;28;20033;-71
2023/01/07 10:40:07;;;;;;;0.55;0.10;;;11.10;99.90;;;;;;5028982;28;20037;-71
2023/01/07 10:42:42;;;;;;;1.05;0.22;;;11.10;99.90;;;;;;5024189;28;20065;-73
2023/01/07 10:45:20;;;;;;;2.92;0.20;;;11.20;99.90;;;;;;5024190;28;20083;-71
2023/01/07 10:48:11;;;;;;;0.30;0.20;;;11.10;99.90;;;;;;5027629;28;20045;-71
2023/01/07 10:50:55;;;;;;;0.40;0.10;;;11.20;99.90;;;;;;5024716;28;20060;-71
2023/01/07 10:53:28;;;;;;;0.47;0.20;;;11.30;99.90;;;;;;5026174;28;20088;-72
2023/01/07 10:56:12;;;;;;;0.60;0.30;;;11.30;99.90;;;;;;5027719;28;20567;-72
2023/01/07 10:58:43;;;;;;;1.02;0.30;;;11.30;99.90;;;;;;5024055;28;20099;-71
2023/01/07 11:01:23;;;;;;;0.70;0.10;;;11.40;99.90;;;;;;5028180;28;20042;-71
2023/01/07 11:03:52;;;;;;;0.50;0.10;;;11.40;99.90;;;;;;5027259;28;20041;-71
2023/01/07 11:06:24;;;;;;;2.72;0.55;;;11.40;99.90;;;;;;5026291;28;20033;-71
2023/01/07 11:08:49;;;;;;;0.95;0.10;;;11.50;99.90;;;;;;5027563;28;20068;-71
2023/01/07 11:11:19;;;;;;;0.73;0.28;;;11.50;99.90;;;;;;5028148;28;20437;-72
2023/01/07 11:13:59;;;;;;;0.50;0.20;;;11.60;99.90;;;;;;5027169;28;20124;-71
2023/01/07 11:16:35;;;;;;;0.50;0.10;;;11.60;99.90;;;;;;5028091;28;20631;-72
2023/01/07 11:19:05;;;;;;;1.27;0.20;;;11.60;99.90;;;;;;5026370;28;20045;-73
2023/01/07 11:21:39;;;;;;;0.63;0.13;;;11.60;99.90;;;;;;5023309;28;20026;-72
2023/01/07 11:24:29;;;;;;;0.20;0.10;;;11.60;99.90;;;;;;5024345;28;20025;-71
2023/01/07 11:27:04;;;;;;;1.57;0.40;;;11.60;99.90;;;;;;5028283;28;20042;-71
2023/01/07 11:29:41;;;;;;;0.32;0.20;;;11.70;99.90;;;;;;5023474;28;20264;-71
2023/01/07 11:32:19;;;;;;;0.10;0.10;;;11.70;99.90;;;;;;5025319;28;20113;-71
2023/01/07 11:35:05;;;;;;;1.38;0.10;;;11.60;99.90;;;;;;5032207;28;20397;-72
2023/01/07 11:37:39;;;;;;;2.92;0.20;;;11.60;99.90;;;;;;5023406;28;20036;-72
2023/01/07 11:40:29;;;;;;;0.52;0.10;;;11.60;99.90;;;;;;5029005;28;20398;-72
2023/01/07 11:43:14;;;;;;;0.73;0.20;;;11.60;99.90;;;;;;5028772;28;20029;-70
2023/01/07 11:45:53;;;;;;;0.50;0.20;;;11.60;99.90;;;;;;5028331;28;20045;-71
2023/01/07 11:48:22;;;;;;;9.07;0.40;;;11.60;99.90;;;;;;5027766;28;20046;-71
2023/01/07 11:50:53;;;;;;;0.43;0.17;;;11.60;99.90;;;;;;5030204;28;20049;-72
2023/01/07 11:53:19;;;;;;;0.50;0.40;;;11.60;99.90;;;;;;5027318;28;20116;-72
2023/01/07 11:55:54;;;;;;;2.80;0.32;;;11.70;99.90;;;;;;5029064;28;20122;-71
2023/01/07 11:58:19;;;;;;;0.28;0.28;;;11.70;99.90;;;;;;5030111;28;20057;-71
2023/01/07 12:00:57;;;;;;;2.28;0.30;;;11.70;99.90;;;;;;5029824;28;20490;-72
2023/01/07 12:03:23;;;;;;;0.28;0.10;;;11.70;99.90;;;;;;5032629;28;20049;-70
2023/01/07 12:05:55;;;;;;;0.50;0.10;;;11.70;99.90;;;;;;5031495;28;20037;-72
2023/01/07 12:08:22;;;;;;;0.40;0.20;;;11.70;99.90;;;;;;5030741;28;20095;-72
2023/01/07 12:10:55;;;;;;;0.88;0.30;;;11.70;99.90;;;;;;5028986;28;20044;-70
2023/01/07 12:13:24;;;;;;;0.50;0.25;;;11.70;99.90;;;;;;5029583;28;20037;-74
2023/01/07 12:15:57;;;;;;;1.02;0.20;;;11.60;99.90;;;;;;5030232;28;20425;-72
2023/01/07 12:18:48;;;;;;;0.25;0.13;;;11.60;99.90;;;;;;5030049;28;20044;-71
2023/01/07 12:21:51;;;;;;;0.65;0.40;;;11.60;99.90;;;;;;5026227;28;20124;-71
2023/01/07 12:24:40;;;;;;;0.73;0.68;;;11.50;99.90;;;;;;5027768;28;20103;-70
2023/01/07 12:27:11;;;;;;;0.63;0.32;;;11.50;99.90;;;;;;5027009;28;20033;-72
2023/01/07 12:29:59;;;;;;;2.17;0.68;;;11.50;99.90;;;;;;5029999;28;20041;-70
2023/01/07 12:32:56;;;;;;;0.38;0.20;;;11.50;99.90;;;;;;5029713;28;20041;-71
2023/01/07 12:35:38;;;;;;;0.40;0.20;;;11.50;99.90;;;;;;5027925;28;20060;-72
2023/01/07 12:38:31;;;;;;;1.80;0.17;;;11.50;99.90;;;;;;5026532;28;20103;-71
2023/01/07 12:41:01;;;;;;;0.85;0.17;;;11.50;99.90;;;;;;5026510;28;20049;-69
2023/01/07 12:43:56;;;;;;;0.90;0.30;;;11.50;99.90;;;;;;5029860;28;20037;-71
2023/01/07 12:46:23;;;;;;;0.40;0.13;;;11.50;99.90;;;;;;5025563;28;20099;-71
2023/01/07 12:49:01;;;;;;;1.00;0.25;;;11.60;99.90;;;;;;5028717;28;20046;-73
2023/01/07 12:52:01;;;;;;;0.98;0.30;;;11.60;99.90;;;;;;5021287;28;20557;-73
2023/01/07 12:54:52;;;;;;;0.60;0.20;;;11.50;99.90;;;;;;5017802;28;20048;-72
2023/01/07 12:57:33;;;;;;;0.45;0.40;;;11.50;99.90;;;;;;5026550;28;20681;-71
2023/01/07 13:00:26;;;;;;;0.70;0.40;;;11.50;99.90;;;;;;5025297;28;20048;-72
2023/01/07 13:03:21;;;;;;;0.55;0.22;;;11.50;99.90;;;;;;5027827;28;20063;-72
2023/01/07 13:06:21;;;;;;;1.45;0.52;;;11.50;99.90;;;;;;5026731;28;20091;-69
2023/01/07 13:08:56;;;;;;;2.30;0.20;;;11.50;99.90;;;;;;5006223;28;20033;-71